sensor_id;sensor_type;location;lat;lon;timestamp;temperature;humidity
18613;DHT22;9436;52.152;21.032;2023-03-01T00:01:30;0.00;99.90
18613;DHT22;9436;52.152;21.032;2023-03-01T00:03:59;0.00;99.90
18613;DHT22;9436;52.152;21.032;2023-03-01T00:06:27;0.00;99.90
18613;DHT22;9436;52.152;21.032;2023-03-01T00:08:54;0.00;99.90
18613;DHT22;9436;52.152;21.032;2023-03-01T00:11:23;0.10;99.90
18613;DHT22;9436;52.152;21.032;2023-03-01T00:13:52;0.20;99.90
18613;DHT22;9436;52.152;21.032;2023-03-01T00:16:23;0.10;99.90
18613;DHT22;9436;52.152;21.032;2023-03-01T00:18:50;0.20;99.90
18613;DHT22;9436;52.152;21.032;2023-03-01T00:21:20;0.10;99.90
18613;DHT22;9436;52.152;21.032;2023-03-01T00:23:48;0.10;99.90
18613;DHT22;9436;52.152;21.032;2023-03-01T00:26:16;0.00;99.90
18613;DHT22;9436;52.152;21.032;2023-03-01T00:28:44;0.00;99.90
18613;DHT22;9436;52.152;21.032;2023-03-01T00:31:12;0.00;99.90
18613;DHT22;9436;52.152;21.032;2023-03-01T00:33:40;0.10;99.90
18613;DHT22;9436;52.152;21.032;2023-03-01T00:36:08;0.10;99.90
18613;DHT22;9436;52.152;21.032;2023-03-01T00:38:38;0.20;99.90
18613;DHT22;9436;52.152;21.032;2023-03-01T00:41:05;0.30;99.90
18613;DHT22;9436;52.152;21.032;2023-03-01T00:43:33;0.40;99.90
18613;DHT22;9436;52.152;21.032;2023-03-01T00:46:02;0.40;99.90
18613;DHT22;9436;52.152;21.032;2023-03-01T00:48:29;0.30;99.90
18613;DHT22;9436;52.152;21.032;2023-03-01T00:50:57;0.20;99.90
18613;DHT22;9436;52.152;21.032;2023-03-01T00:53:24;0.10;99.90
18613;DHT22;9436;52.152;21.032;2023-03-01T00:55:52;0.10;99.90
18613;DHT22;9436;52.152;21.032;2023-03-01T00:58:19;0.10;99.90
18613;DHT22;9436;52.152;21.032;2023-03-01T01:00:46;0.10;99.90
18613;DHT22;9436;52.152;21.032;2023-03-01T01:03:13;0.00;99.90
18613;DHT22;9436;52.152;21.032;2023-03-01T01:05:40;0.00;99.90
18613;DHT22;9436;52.152;21.032;2023-03-01T01:08:07;0.00;99.90
18613;DHT22;9436;52.152;21.032;2023-03-01T01:10:34;0.00;99.90
18613;DHT22;9436;52.152;21.032;2023-03-01T01:13:03;0.00;99.90
18613;DHT22;9436;52.152;21.032;2023-03-01T01:15:34;0.00;99.90
18613;DHT22;9436;52.152;21.032;2023-03-01T01:18:01;-0.10;99.90
18613;DHT22;9436;52.152;21.032;2023-03-01T01:20:28;-0.10;99.90
18613;DHT22;9436;52.152;21.032;2023-03-01T01:22:55;-0.20;99.90
18613;DHT22;9436;52.152;21.032;2023-03-01T01:25:22;0.00;99.90
18613;DHT22;9436;52.152;21.032;2023-03-01T01:27:50;-0.10;99.90
18613;DHT22;9436;52.152;21.032;2023-03-01T01:30:19;0.00;99.90
18613;DHT22;9436;52.152;21.032;2023-03-01T01:32:46;-0.10;99.90
18613;DHT22;9436;52.152;21.032;2023-03-01T01:35:13;0.00;99.90
18613;DHT22;9436;52.152;21.032;2023-03-01T01:37:40;0.00;99.90
18613;DHT22;9436;52.152;21.032;2023-03-01T01:40:10;0.00;99.90
18613;DHT22;9436;52.152;21.032;2023-03-01T01:42:37;-0.10;99.90
18613;DHT22;9436;52.152;21.032;2023-03-01T01:45:28;-0.10;99.90
18613;DHT22;9436;52.152;21.032;2023-03-01T01:47:59;-0.10;99.90
18613;DHT22;9436;52.152;21.032;2023-03-01T01:50:27;0.00;99.90
18613;DHT22;9436;52.152;21.032;2023-03-01T01:53:04;-0.10;99.90
18613;DHT22;9436;52.152;21.032;2023-03-01T01:55:32;-0.10;99.90
18613;DHT22;9436;52.152;21.032;2023-03-01T01:58:02;-0.20;99.90
18613;DHT22;9436;52.152;21.032;2023-03-01T02:00:32;-0.20;99.90
18613;DHT22;9436;52.152;21.032;2023-03-01T02:03:01;-0.20;99.90
18613;DHT22;9436;52.152;21.032;2023-03-01T02:05:34;-0.30;99.90
18613;DHT22;9436;52.152;21.032;2023-03-01T02:08:04;-0.20;99.90
18613;DHT22;9436;52.152;21.032;2023-03-01T02:10:33;-0.20;99.90
18613;DHT22;9436;52.152;21.032;2023-03-01T02:13:02;-0.20;99.90
18613;DHT22;9436;52.152;21.032;2023-03-01T02:15:33;-0.20;99.90
18613;DHT22;9436;52.152;21.032;2023-03-01T02:18:01;-0.30;99.90
18613;DHT22;9436;52.152;21.032;2023-03-01T02:20:34;-0.30;99.90
18613;DHT22;9436;52.152;21.032;2023-03-01T02:23:02;-0.20;99.90
18613;DHT22;9436;52.152;21.032;2023-03-01T02:25:37;-0.30;99.90
18613;DHT22;9436;52.152;21.032;2023-03-01T02:28:20;-0.30;99.90
18613;DHT22;9436;52.152;21.032;2023-03-01T02:30:48;-0.30;99.90
18613;DHT22;9436;52.152;21.032;2023-03-01T02:33:31;-0.30;99.90
18613;DHT22;9436;52.152;21.032;2023-03-01T02:36:00;-0.30;99.90
18613;DHT22;9436;52.152;21.032;2023-03-01T02:38:28;-0.40;99.90
18613;DHT22;9436;52.152;21.032;2023-03-01T02:40:56;-0.30;99.90
18613;DHT22;9436;52.152;21.032;2023-03-01T02:43:28;-0.40;99.90
18613;DHT22;9436;52.152;21.032;2023-03-01T02:45:58;-0.40;99.90
18613;DHT22;9436;52.152;21.032;2023-03-01T02:48:25;-0.40;99.90
18613;DHT22;9436;52.152;21.032;2023-03-01T02:51:04;-0.40;99.90
18613;DHT22;9436;52.152;21.032;2023-03-01T02:53:38;-0.30;99.90
18613;DHT22;9436;52.152;21.032;2023-03-01T02:56:06;-0.50;99.90
18613;DHT22;9436;52.152;21.032;2023-03-01T02:58:40;-0.40;99.90
18613;DHT22;9436;52.152;21.032;2023-03-01T03:01:11;-0.50;99.90
18613;DHT22;9436;52.152;21.032;2023-03-01T03:03:39;-0.50;99.90
18613;DHT22;9436;52.152;21.032;2023-03-01T03:06:06;-0.40;99.90
18613;DHT22;9436;52.152;21.032;2023-03-01T03:08:33;-0.40;99.90
18613;DHT22;9436;52.152;21.032;2023-03-01T03:11:01;-0.40;99.90
18613;DHT22;9436;52.152;21.032;2023-03-01T03:13:28;-0.30;99.90
18613;DHT22;9436;52.152;21.032;2023-03-01T03:15:56;-0.10;99.90
18613;DHT22;9436;52.152;21.032;2023-03-01T03:18:24;-0.10;99.90
18613;DHT22;9436;52.152;21.032;2023-03-01T03:20:52;-0.20;99.90
18613;DHT22;9436;52.152;21.032;2023-03-01T03:23:21;-0.20;99.90
18613;DHT22;9436;52.152;21.032;2023-03-01T03:25:49;-0.20;99.90
18613;DHT22;9436;52.152;21.032;2023-03-01T03:28:16;-0.20;99.90
18613;DHT22;9436;52.152;21.032;2023-03-01T03:30:44;-0.20;99.90
18613;DHT22;9436;52.152;21.032;2023-03-01T03:33:13;-0.20;99.90
18613;DHT22;9436;52.152;21.032;2023-03-01T03:35:42;-0.20;99.90
18613;DHT22;9436;52.152;21.032;2023-03-01T03:38:11;-0.40;99.90
18613;DHT22;9436;52.152;21.032;2023-03-01T03:40:44;-0.50;99.90
18613;DHT22;9436;52.152;21.032;2023-03-01T03:43:13;-0.60;99.90
18613;DHT22;9436;52.152;21.032;2023-03-01T03:45:41;-0.60;99.90
18613;DHT22;9436;52.152;21.032;2023-03-01T03:48:08;-0.60;99.90
18613;DHT22;9436;52.152;21.032;2023-03-01T03:50:38;-0.60;99.90
18613;DHT22;9436;52.152;21.032;2023-03-01T03:53:07;-0.60;99.90
18613;DHT22;9436;52.152;21.032;2023-03-01T03:55:35;-0.70;99.90
18613;DHT22;9436;52.152;21.032;2023-03-01T03:58:05;-0.70;99.90
18613;DHT22;9436;52.152;21.032;2023-03-01T04:00:34;-0.60;99.90
18613;DHT22;9436;52.152;21.032;2023-03-01T04:03:02;-0.60;99.90
18613;DHT22;9436;52.152;21.032;2023-03-01T04:05:29;-0.50;99.90
18613;DHT22;9436;52.152;21.032;2023-03-01T04:07:58;-0.40;99.90
18613;DHT22;9436;52.152;21.032;2023-03-01T04:10:28;-0.50;99.90
18613;DHT22;9436;52.152;21.032;2023-03-01T04:12:56;-0.40;99.90
18613;DHT22;9436;52.152;21.032;2023-03-01T04:15:23;-0.40;99.90
18613;DHT22;9436;52.152;21.032;2023-03-01T04:17:52;-0.30;99.90
18613;DHT22;9436;52.152;21.032;2023-03-01T04:20:21;-0.30;99.90
18613;DHT22;9436;52.152;21.032;2023-03-01T04:22:51;-0.30;99.90
18613;DHT22;9436;52.152;21.032;2023-03-01T04:25:20;-0.40;99.90
18613;DHT22;9436;52.152;21.032;2023-03-01T04:27:47;-0.30;99.90
18613;DHT22;9436;52.152;21.032;2023-03-01T04:30:14;-0.30;99.90
18613;DHT22;9436;52.152;21.032;2023-03-01T04:32:42;-0.30;99.90
18613;DHT22;9436;52.152;21.032;2023-03-01T04:35:09;-0.40;99.90
18613;DHT22;9436;52.152;21.032;2023-03-01T04:37:36;-0.30;99.90
18613;DHT22;9436;52.152;21.032;2023-03-01T04:40:04;-0.30;99.90
18613;DHT22;9436;52.152;21.032;2023-03-01T04:42:40;-0.30;99.90
18613;DHT22;9436;52.152;21.032;2023-03-01T04:45:08;-0.20;99.90
18613;DHT22;9436;52.152;21.032;2023-03-01T04:47:39;-0.20;99.90
18613;DHT22;9436;52.152;21.032;2023-03-01T04:50:08;0.00;99.90
18613;DHT22;9436;52.152;21.032;2023-03-01T04:52:35;0.10;99.90
18613;DHT22;9436;52.152;21.032;2023-03-01T04:55:02;-0.10;99.90
18613;DHT22;9436;52.152;21.032;2023-03-01T04:57:30;0.00;99.90
18613;DHT22;9436;52.152;21.032;2023-03-01T04:59:59;-0.10;99.90
18613;DHT22;9436;52.152;21.032;2023-03-01T05:02:26;-0.20;99.90
18613;DHT22;9436;52.152;21.032;2023-03-01T05:04:53;-0.30;99.90
18613;DHT22;9436;52.152;21.032;2023-03-01T05:07:23;-0.20;99.90
18613;DHT22;9436;52.152;21.032;2023-03-01T05:09:51;-0.20;99.90
18613;DHT22;9436;52.152;21.032;2023-03-01T05:12:19;-0.10;99.90
18613;DHT22;9436;52.152;21.032;2023-03-01T05:14:47;-0.30;99.90
18613;DHT22;9436;52.152;21.032;2023-03-01T05:17:15;-0.30;99.90
18613;DHT22;9436;52.152;21.032;2023-03-01T05:19:42;-0.30;99.90
18613;DHT22;9436;52.152;21.032;2023-03-01T05:22:09;-0.30;99.90
18613;DHT22;9436;52.152;21.032;2023-03-01T05:24:36;-0.30;99.90
18613;DHT22;9436;52.152;21.032;2023-03-01T05:27:04;-0.20;99.90
18613;DHT22;9436;52.152;21.032;2023-03-01T05:29:32;-0.10;99.90
18613;DHT22;9436;52.152;21.032;2023-03-01T05:32:01;-0.20;99.90
18613;DHT22;9436;52.152;21.032;2023-03-01T05:34:33;-0.20;99.90
18613;DHT22;9436;52.152;21.032;2023-03-01T05:37:01;-0.10;99.90
18613;DHT22;9436;52.152;21.032;2023-03-01T05:39:29;-0.10;99.90
18613;DHT22;9436;52.152;21.032;2023-03-01T05:41:58;-0.10;99.90
18613;DHT22;9436;52.152;21.032;2023-03-01T05:44:27;0.10;99.90
18613;DHT22;9436;52.152;21.032;2023-03-01T05:46:55;0.00;99.90
18613;DHT22;9436;52.152;21.032;2023-03-01T05:49:22;0.00;99.90
18613;DHT22;9436;52.152;21.032;2023-03-01T05:51:52;0.10;99.90
18613;DHT22;9436;52.152;21.032;2023-03-01T05:54:21;0.10;99.90
18613;DHT22;9436;52.152;21.032;2023-03-01T05:56:48;0.10;99.90
18613;DHT22;9436;52.152;21.032;2023-03-01T05:59:15;0.20;99.90
18613;DHT22;9436;52.152;21.032;2023-03-01T06:01:42;0.30;99.90
18613;DHT22;9436;52.152;21.032;2023-03-01T06:04:10;0.40;99.90
18613;DHT22;9436;52.152;21.032;2023-03-01T06:06:37;0.30;99.90
18613;DHT22;9436;52.152;21.032;2023-03-01T06:09:07;0.30;99.90
18613;DHT22;9436;52.152;21.032;2023-03-01T06:11:35;0.30;99.90
18613;DHT22;9436;52.152;21.032;2023-03-01T06:14:03;0.40;99.90
18613;DHT22;9436;52.152;21.032;2023-03-01T06:16:30;0.70;99.90
18613;DHT22;9436;52.152;21.032;2023-03-01T06:18:57;0.60;99.90
18613;DHT22;9436;52.152;21.032;2023-03-01T06:21:24;0.90;99.90
18613;DHT22;9436;52.152;21.032;2023-03-01T06:23:51;1.00;99.90
18613;DHT22;9436;52.152;21.032;2023-03-01T06:26:20;0.90;99.90
18613;DHT22;9436;52.152;21.032;2023-03-01T06:28:47;0.80;99.90
18613;DHT22;9436;52.152;21.032;2023-03-01T06:31:14;1.10;99.90
18613;DHT22;9436;52.152;21.032;2023-03-01T06:33:41;1.30;99.90
18613;DHT22;9436;52.152;21.032;2023-03-01T06:36:10;1.50;99.90
18613;DHT22;9436;52.152;21.032;2023-03-01T06:38:37;1.70;99.90
18613;DHT22;9436;52.152;21.032;2023-03-01T06:41:06;1.80;99.90
18613;DHT22;9436;52.152;21.032;2023-03-01T06:43:35;1.90;99.90
18613;DHT22;9436;52.152;21.032;2023-03-01T06:46:04;1.90;99.90
18613;DHT22;9436;52.152;21.032;2023-03-01T06:48:32;2.20;99.90
18613;DHT22;9436;52.152;21.032;2023-03-01T06:50:59;2.40;99.90
18613;DHT22;9436;52.152;21.032;2023-03-01T06:53:27;2.60;99.90
18613;DHT22;9436;52.152;21.032;2023-03-01T06:55:55;2.60;99.90
18613;DHT22;9436;52.152;21.032;2023-03-01T06:58:22;2.70;99.90
18613;DHT22;9436;52.152;21.032;2023-03-01T07:00:51;2.70;99.90
18613;DHT22;9436;52.152;21.032;2023-03-01T07:03:18;3.10;99.90
18613;DHT22;9436;52.152;21.032;2023-03-01T07:05:47;2.80;99.90
18613;DHT22;9436;52.152;21.032;2023-03-01T07:08:15;2.60;99.90
18613;DHT22;9436;52.152;21.032;2023-03-01T07:10:42;2.80;99.90
18613;DHT22;9436;52.152;21.032;2023-03-01T07:13:09;2.70;99.90
18613;DHT22;9436;52.152;21.032;2023-03-01T07:15:36;3.00;99.90
18613;DHT22;9436;52.152;21.032;2023-03-01T07:18:05;3.10;99.90
18613;DHT22;9436;52.152;21.032;2023-03-01T07:20:32;3.10;99.90
18613;DHT22;9436;52.152;21.032;2023-03-01T07:22:59;3.20;99.90
18613;DHT22;9436;52.152;21.032;2023-03-01T07:25:26;3.00;99.90
18613;DHT22;9436;52.152;21.032;2023-03-01T07:27:53;3.20;99.90
18613;DHT22;9436;52.152;21.032;2023-03-01T07:30:20;3.20;99.90
18613;DHT22;9436;52.152;21.032;2023-03-01T07:32:48;3.30;99.90
18613;DHT22;9436;52.152;21.032;2023-03-01T07:35:16;3.50;99.90
18613;DHT22;9436;52.152;21.032;2023-03-01T07:37:43;3.40;99.90
18613;DHT22;9436;52.152;21.032;2023-03-01T07:40:11;3.30;99.90
18613;DHT22;9436;52.152;21.032;2023-03-01T07:42:39;3.70;99.90
18613;DHT22;9436;52.152;21.032;2023-03-01T07:45:07;4.20;99.90
18613;DHT22;9436;52.152;21.032;2023-03-01T07:47:34;4.00;99.90
18613;DHT22;9436;52.152;21.032;2023-03-01T07:50:01;4.00;99.90
18613;DHT22;9436;52.152;21.032;2023-03-01T07:52:30;3.70;99.90
18613;DHT22;9436;52.152;21.032;2023-03-01T07:54:57;3.80;99.90
18613;DHT22;9436;52.152;21.032;2023-03-01T07:57:24;3.60;99.90
18613;DHT22;9436;52.152;21.032;2023-03-01T07:59:52;3.70;99.90
18613;DHT22;9436;52.152;21.032;2023-03-01T08:02:19;3.50;99.90
18613;DHT22;9436;52.152;21.032;2023-03-01T08:04:46;3.40;99.90
18613;DHT22;9436;52.152;21.032;2023-03-01T08:07:13;3.20;99.90
18613;DHT22;9436;52.152;21.032;2023-03-01T08:09:41;3.30;99.90
18613;DHT22;9436;52.152;21.032;2023-03-01T08:12:08;3.20;99.90
18613;DHT22;9436;52.152;21.032;2023-03-01T08:14:35;3.00;99.90
18613;DHT22;9436;52.152;21.032;2023-03-01T08:17:02;3.00;99.90
18613;DHT22;9436;52.152;21.032;2023-03-01T08:19:30;2.90;99.90
18613;DHT22;9436;52.152;21.032;2023-03-01T08:21:57;3.00;99.90
18613;DHT22;9436;52.152;21.032;2023-03-01T08:24:25;3.80;99.90
18613;DHT22;9436;52.152;21.032;2023-03-01T08:26:54;4.50;99.90
18613;DHT22;9436;52.152;21.032;2023-03-01T08:29:21;5.20;99.90
18613;DHT22;9436;52.152;21.032;2023-03-01T08:31:49;5.60;99.90
18613;DHT22;9436;52.152;21.032;2023-03-01T08:34:17;5.30;99.90
18613;DHT22;9436;52.152;21.032;2023-03-01T08:36:45;5.10;99.90
18613;DHT22;9436;52.152;21.032;2023-03-01T08:39:14;4.90;99.90
18613;DHT22;9436;52.152;21.032;2023-03-01T08:41:42;4.60;99.90
18613;DHT22;9436;52.152;21.032;2023-03-01T08:44:12;4.40;99.90
18613;DHT22;9436;52.152;21.032;2023-03-01T08:46:41;4.30;99.90
18613;DHT22;9436;52.152;21.032;2023-03-01T08:49:10;4.40;99.90
18613;DHT22;9436;52.152;21.032;2023-03-01T08:51:38;4.70;99.90
18613;DHT22;9436;52.152;21.032;2023-03-01T08:54:06;5.00;99.90
18613;DHT22;9436;52.152;21.032;2023-03-01T08:56:33;6.00;99.90
18613;DHT22;9436;52.152;21.032;2023-03-01T08:59:00;5.70;99.90
18613;DHT22;9436;52.152;21.032;2023-03-01T09:01:29;5.20;99.90
18613;DHT22;9436;52.152;21.032;2023-03-01T09:03:56;5.10;99.90
18613;DHT22;9436;52.152;21.032;2023-03-01T09:06:23;4.80;99.90
18613;DHT22;9436;52.152;21.032;2023-03-01T09:08:50;4.60;99.90
18613;DHT22;9436;52.152;21.032;2023-03-01T09:11:19;4.50;99.90
18613;DHT22;9436;52.152;21.032;2023-03-01T09:13:47;4.50;99.90
18613;DHT22;9436;52.152;21.032;2023-03-01T09:16:16;4.50;99.90
18613;DHT22;9436;52.152;21.032;2023-03-01T09:18:48;4.60;99.90
18613;DHT22;9436;52.152;21.032;2023-03-01T09:21:16;4.80;99.90
18613;DHT22;9436;52.152;21.032;2023-03-01T09:23:45;5.00;99.90
18613;DHT22;9436;52.152;21.032;2023-03-01T09:26:14;5.10;99.90
18613;DHT22;9436;52.152;21.032;2023-03-01T09:28:42;5.10;99.90
18613;DHT22;9436;52.152;21.032;2023-03-01T09:31:10;5.30;99.90
18613;DHT22;9436;52.152;21.032;2023-03-01T09:33:39;5.30;99.90
18613;DHT22;9436;52.152;21.032;2023-03-01T09:36:13;5.40;99.90
18613;DHT22;9436;52.152;21.032;2023-03-01T09:38:40;5.40;99.90
18613;DHT22;9436;52.152;21.032;2023-03-01T09:41:11;5.30;99.90
18613;DHT22;9436;52.152;21.032;2023-03-01T09:43:48;5.30;99.90
18613;DHT22;9436;52.152;21.032;2023-03-01T09:46:21;5.40;99.90
18613;DHT22;9436;52.152;21.032;2023-03-01T09:48:51;5.30;99.90
18613;DHT22;9436;52.152;21.032;2023-03-01T09:51:25;5.20;99.90
18613;DHT22;9436;52.152;21.032;2023-03-01T09:53:53;5.30;99.90
18613;DHT22;9436;52.152;21.032;2023-03-01T09:56:27;5.20;99.90
18613;DHT22;9436;52.152;21.032;2023-03-01T09:58:59;5.40;99.90
18613;DHT22;9436;52.152;21.032;2023-03-01T10:01:33;5.50;99.90
18613;DHT22;9436;52.152;21.032;2023-03-01T10:04:26;5.80;99.90
18613;DHT22;9436;52.152;21.032;2023-03-01T10:07:14;5.80;99.90
18613;DHT22;9436;52.152;21.032;2023-03-01T10:09:45;5.70;99.90
18613;DHT22;9436;52.152;21.032;2023-03-01T10:12:15;5.70;99.90
18613;DHT22;9436;52.152;21.032;2023-03-01T10:14:48;5.80;99.90
18613;DHT22;9436;52.152;21.032;2023-03-01T10:17:27;6.00;99.90
18613;DHT22;9436;52.152;21.032;2023-03-01T10:20:13;6.10;99.90
18613;DHT22;9436;52.152;21.032;2023-03-01T10:22:42;6.80;99.90
18613;DHT22;9436;52.152;21.032;2023-03-01T10:25:14;7.50;99.90
18613;DHT22;9436;52.152;21.032;2023-03-01T10:27:49;7.90;99.90
18613;DHT22;9436;52.152;21.032;2023-03-01T10:30:22;8.40;99.90
18613;DHT22;9436;52.152;21.032;2023-03-01T10:32:51;8.00;99.90
18613;DHT22;9436;52.152;21.032;2023-03-01T10:35:22;7.50;99.90
18613;DHT22;9436;52.152;21.032;2023-03-01T10:38:03;7.00;99.90
18613;DHT22;9436;52.152;21.032;2023-03-01T10:40:31;6.80;99.90
18613;DHT22;9436;52.152;21.032;2023-03-01T10:43:00;6.70;99.90
18613;DHT22;9436;52.152;21.032;2023-03-01T10:45:34;6.80;99.90
18613;DHT22;9436;52.152;21.032;2023-03-01T10:48:10;7.20;99.90
18613;DHT22;9436;52.152;21.032;2023-03-01T10:50:38;7.70;99.90
18613;DHT22;9436;52.152;21.032;2023-03-01T10:53:22;7.80;99.90
18613;DHT22;9436;52.152;21.032;2023-03-01T10:55:57;7.70;99.90
18613;DHT22;9436;52.152;21.032;2023-03-01T10:58:25;8.10;99.90
18613;DHT22;9436;52.152;21.032;2023-03-01T11:00:53;8.10;99.90
18613;DHT22;9436;52.152;21.032;2023-03-01T11:03:24;8.00;99.90
18613;DHT22;9436;52.152;21.032;2023-03-01T11:05:56;7.60;99.90
18613;DHT22;9436;52.152;21.032;2023-03-01T11:08:36;7.20;99.90
18613;DHT22;9436;52.152;21.032;2023-03-01T11:11:24;6.90;99.90
18613;DHT22;9436;52.152;21.032;2023-03-01T11:13:55;6.90;99.90
18613;DHT22;9436;52.152;21.032;2023-03-01T11:16:34;7.10;99.90
18613;DHT22;9436;52.152;21.032;2023-03-01T11:19:17;7.30;99.90
18613;DHT22;9436;52.152;21.032;2023-03-01T11:21:52;7.40;99.90
18613;DHT22;9436;52.152;21.032;2023-03-01T11:24:26;7.50;99.90
18613;DHT22;9436;52.152;21.032;2023-03-01T11:26:56;7.60;99.90
18613;DHT22;9436;52.152;21.032;2023-03-01T11:29:29;7.60;99.90
18613;DHT22;9436;52.152;21.032;2023-03-01T11:32:01;8.10;99.90
18613;DHT22;9436;52.152;21.032;2023-03-01T11:34:38;8.60;99.90
18613;DHT22;9436;52.152;21.032;2023-03-01T11:37:15;9.00;99.90
18613;DHT22;9436;52.152;21.032;2023-03-01T11:39:50;9.40;99.90
18613;DHT22;9436;52.152;21.032;2023-03-01T11:42:28;9.30;99.90
18613;DHT22;9436;52.152;21.032;2023-03-01T11:45:05;8.90;99.90
18613;DHT22;9436;52.152;21.032;2023-03-01T11:50:30;8.30;99.90
18613;DHT22;9436;52.152;21.032;2023-03-01T11:53:21;8.20;99.90
18613;DHT22;9436;52.152;21.032;2023-03-01T11:56:12;7.70;99.90
18613;DHT22;9436;52.152;21.032;2023-03-01T11:59:03;7.70;99.90
18613;DHT22;9436;52.152;21.032;2023-03-01T12:01:46;7.60;99.90
18613;DHT22;9436;52.152;21.032;2023-03-01T12:04:32;7.50;99.90
18613;DHT22;9436;52.152;21.032;2023-03-01T12:07:05;7.30;99.90
18613;DHT22;9436;52.152;21.032;2023-03-01T12:09:48;7.40;99.90
18613;DHT22;9436;52.152;21.032;2023-03-01T12:12:33;7.50;99.90
18613;DHT22;9436;52.152;21.032;2023-03-01T12:15:20;7.60;99.90
18613;DHT22;9436;52.152;21.032;2023-03-01T12:18:13;7.70;99.90
18613;DHT22;9436;52.152;21.032;2023-03-01T12:20:53;7.70;99.90
18613;DHT22;9436;52.152;21.032;2023-03-01T12:26:33;7.70;99.90
18613;DHT22;9436;52.152;21.032;2023-03-01T12:29:25;7.70;99.90
18613;DHT22;9436;52.152;21.032;2023-03-01T12:32:07;7.90;99.90
18613;DHT22;9436;52.152;21.032;2023-03-01T12:34:49;7.80;99.90
18613;DHT22;9436;52.152;21.032;2023-03-01T12:37:28;7.90;99.90
18613;DHT22;9436;52.152;21.032;2023-03-01T12:40:17;7.70;99.90
18613;DHT22;9436;52.152;21.032;2023-03-01T12:42:58;7.80;99.90
18613;DHT22;9436;52.152;21.032;2023-03-01T12:45:55;7.80;99.90
18613;DHT22;9436;52.152;21.032;2023-03-01T12:48:31;7.80;99.90
18613;DHT22;9436;52.152;21.032;2023-03-01T12:51:06;8.00;99.90
18613;DHT22;9436;52.152;21.032;2023-03-01T12:53:39;7.90;99.90
18613;DHT22;9436;52.152;21.032;2023-03-01T12:56:09;8.00;99.90
18613;DHT22;9436;52.152;21.032;2023-03-01T12:58:45;8.10;99.90
18613;DHT22;9436;52.152;21.032;2023-03-01T13:01:26;8.20;99.90
18613;DHT22;9436;52.152;21.032;2023-03-01T13:04:11;8.30;99.90
18613;DHT22;9436;52.152;21.032;2023-03-01T13:06:44;8.30;99.90
18613;DHT22;9436;52.152;21.032;2023-03-01T13:09:19;8.40;99.90
18613;DHT22;9436;52.152;21.032;2023-03-01T13:11:50;8.50;99.90
18613;DHT22;9436;52.152;21.032;2023-03-01T13:14:45;8.60;99.90
18613;DHT22;9436;52.152;21.032;2023-03-01T13:17:39;8.50;99.90
18613;DHT22;9436;52.152;21.032;2023-03-01T13:20:15;8.60;99.90
18613;DHT22;9436;52.152;21.032;2023-03-01T13:22:43;8.80;99.90
18613;DHT22;9436;52.152;21.032;2023-03-01T13:25:15;8.80;99.90
18613;DHT22;9436;52.152;21.032;2023-03-01T13:27:44;8.70;99.90
18613;DHT22;9436;52.152;21.032;2023-03-01T13:30:40;8.50;99.90
18613;DHT22;9436;52.152;21.032;2023-03-01T13:33:46;8.50;99.90
18613;DHT22;9436;52.152;21.032;2023-03-01T13:36:47;8.60;99.90
18613;DHT22;9436;52.152;21.032;2023-03-01T13:39:29;8.90;99.90
18613;DHT22;9436;52.152;21.032;2023-03-01T13:41:59;9.00;99.90
18613;DHT22;9436;52.152;21.032;2023-03-01T13:44:30;9.00;99.90
18613;DHT22;9436;52.152;21.032;2023-03-01T13:47:03;8.70;99.90
18613;DHT22;9436;52.152;21.032;2023-03-01T13:49:42;8.60;99.90
18613;DHT22;9436;52.152;21.032;2023-03-01T13:52:37;8.50;99.90
18613;DHT22;9436;52.152;21.032;2023-03-01T13:55:16;8.50;99.90
18613;DHT22;9436;52.152;21.032;2023-03-01T13:57:45;8.60;99.90
18613;DHT22;9436;52.152;21.032;2023-03-01T14:00:27;8.50;99.90
18613;DHT22;9436;52.152;21.032;2023-03-01T14:03:11;8.40;99.90
18613;DHT22;9436;52.152;21.032;2023-03-01T14:05:42;8.50;99.90
18613;DHT22;9436;52.152;21.032;2023-03-01T14:08:21;8.60;99.90
18613;DHT22;9436;52.152;21.032;2023-03-01T14:13:54;8.60;99.90
18613;DHT22;9436;52.152;21.032;2023-03-01T14:16:33;8.90;99.90
18613;DHT22;9436;52.152;21.032;2023-03-01T14:19:12;9.20;99.90
18613;DHT22;9436;52.152;21.032;2023-03-01T14:21:43;9.30;99.90
18613;DHT22;9436;52.152;21.032;2023-03-01T14:24:17;9.40;99.90
18613;DHT22;9436;52.152;21.032;2023-03-01T14:26:45;9.20;99.90
18613;DHT22;9436;52.152;21.032;2023-03-01T14:29:27;9.20;99.90
18613;DHT22;9436;52.152;21.032;2023-03-01T14:32:09;9.30;99.90
18613;DHT22;9436;52.152;21.032;2023-03-01T14:34:36;9.40;99.90
18613;DHT22;9436;52.152;21.032;2023-03-01T14:37:20;9.40;99.90
18613;DHT22;9436;52.152;21.032;2023-03-01T14:39:48;9.20;99.90
18613;DHT22;9436;52.152;21.032;2023-03-01T14:42:15;9.20;99.90
18613;DHT22;9436;52.152;21.032;2023-03-01T14:44:43;9.20;99.90
18613;DHT22;9436;52.152;21.032;2023-03-01T14:47:13;9.00;99.90
18613;DHT22;9436;52.152;21.032;2023-03-01T14:49:42;9.00;99.90
18613;DHT22;9436;52.152;21.032;2023-03-01T14:52:20;9.30;99.90
18613;DHT22;9436;52.152;21.032;2023-03-01T14:54:49;9.60;99.90
18613;DHT22;9436;52.152;21.032;2023-03-01T14:57:19;9.90;99.90
18613;DHT22;9436;52.152;21.032;2023-03-01T14:59:48;10.30;99.90
18613;DHT22;9436;52.152;21.032;2023-03-01T15:02:18;10.60;99.90
18613;DHT22;9436;52.152;21.032;2023-03-01T15:04:49;10.60;99.90
18613;DHT22;9436;52.152;21.032;2023-03-01T15:07:17;10.60;99.90
18613;DHT22;9436;52.152;21.032;2023-03-01T15:09:46;10.30;99.90
18613;DHT22;9436;52.152;21.032;2023-03-01T15:12:35;10.10;99.90
18613;DHT22;9436;52.152;21.032;2023-03-01T15:15:35;9.90;99.90
18613;DHT22;9436;52.152;21.032;2023-03-01T15:18:05;9.70;99.90
18613;DHT22;9436;52.152;21.032;2023-03-01T15:20:34;9.70;99.90
18613;DHT22;9436;52.152;21.032;2023-03-01T15:23:05;9.40;99.90
18613;DHT22;9436;52.152;21.032;2023-03-01T15:25:44;9.10;99.90
18613;DHT22;9436;52.152;21.032;2023-03-01T15:28:19;9.00;99.90
18613;DHT22;9436;52.152;21.032;2023-03-01T15:30:54;8.80;99.90
18613;DHT22;9436;52.152;21.032;2023-03-01T15:33:34;8.80;99.90
18613;DHT22;9436;52.152;21.032;2023-03-01T15:36:03;8.80;99.90
18613;DHT22;9436;52.152;21.032;2023-03-01T15:38:35;8.70;99.90
18613;DHT22;9436;52.152;21.032;2023-03-01T15:41:23;8.80;99.90
18613;DHT22;9436;52.152;21.032;2023-03-01T15:43:51;8.50;99.90
18613;DHT22;9436;52.152;21.032;2023-03-01T15:46:24;8.30;99.90
18613;DHT22;9436;52.152;21.032;2023-03-01T15:48:53;8.10;99.90
18613;DHT22;9436;52.152;21.032;2023-03-01T15:51:33;8.00;99.90
18613;DHT22;9436;52.152;21.032;2023-03-01T15:54:05;7.90;99.90
18613;DHT22;9436;52.152;21.032;2023-03-01T15:56:34;7.80;99.90
18613;DHT22;9436;52.152;21.032;2023-03-01T15:59:02;7.70;99.90
18613;DHT22;9436;52.152;21.032;2023-03-01T16:01:30;7.50;99.90
18613;DHT22;9436;52.152;21.032;2023-03-01T16:03:59;7.50;99.90
18613;DHT22;9436;52.152;21.032;2023-03-01T16:06:26;7.70;99.90
18613;DHT22;9436;52.152;21.032;2023-03-01T16:08:53;8.10;99.90
18613;DHT22;9436;52.152;21.032;2023-03-01T16:11:21;7.90;99.90
18613;DHT22;9436;52.152;21.032;2023-03-01T16:13:49;7.80;99.90
18613;DHT22;9436;52.152;21.032;2023-03-01T16:16:17;7.50;99.90
18613;DHT22;9436;52.152;21.032;2023-03-01T16:18:45;7.40;99.90